AV - LB | Pilotos de la V.A




 METAR AND TAF INFORMATION
METAR FOR WIOO
ADDS - METARS form results

(1208 UTC 17 January 2021)
Data provider http://aviationweather.gov/metar/data/
 
METAR text: WIOO 171130Z 30006KT 6000 FEW012 28/25 Q1008 NOSIG
Conditions at: WIOO (PONTIANAK/SUPADI, ID) observed 1130 UTC 17 January 2021
Temperature: 28.0°C (82°F)
Dewpoint: 25.0°C (77°F) [RH = 84%]
Pressure (altimeter): 29.76 inches Hg (1008.0 mb)
Winds: from the WNW (300 degrees) at 7 MPH (6 knots; 3.1 m/s)
Visibility: 4 miles ( 6 km)
Ceiling: at least 12,000 feet AGL
Clouds: few clouds at 1200 feet AGL
Weather: no significant weather observed at this time

 AIRPORT MAP

 RUNWAY INFORMATION
Runway 15 Runway length 7380 ft Runway width 98 ft
Runway elevation 3 ft Runway displaced threshold 0 ft Runway heading 158
Runway 33 Runway length 7380 ft Runway width 98 ft
Runway elevation 10 ft Runway displaced threshold 0 ft Runway heading 338

 AIRPORT FREQUENCIES
Type APP Name PONTIANAK Frequency 119 MHZ
Type ATIS Name ATIS Frequency 127.4 MHZ
Type INFO Name PONTIAK IN Frequency 895.7 MHZ
Type TWR Name TWR Frequency 118.3 MHZ

 AIRPORT NEAR NAVIGATION AIDS
Type NDB Name Pontianak Frequency 245 KHZ
Type VOR-DME Name Pontianak Frequency 113200 KHZ